Time;durP1;ratioP1;P1;durP2;ratioP2;P2;SDS_P1;SDS_P2;PMS_P1;PMS_P2;Temp;Humidity;BMP_temperature;BMP_pressure;BME280_temperature;BME280_humidity;BME280_pressure;Samples;Min_cycle;Max_cycle;Signal;HPM_P1;HPM_P2
2022/07/23 00:01:35;;;;;;;12.82;8.83;;;;;;;23.81;54.52;99197.77;1679207;85;21005;-37
2022/07/23 00:04:01;;;;;;;18.37;9.38;;;;;;;23.72;55.04;99195.08;1679332;85;21494;-36
2022/07/23 00:06:27;;;;;;;12.25;8.35;;;;;;;23.71;55.08;99192.56;1680073;84;21487;-41
2022/07/23 00:08:53;;;;;;;15.13;10.03;;;;;;;23.68;55.43;99192.90;1679358;85;21483;-41
2022/07/23 00:11:19;;;;;;;18.07;9.63;;;;;;;23.64;55.60;99191.06;1679434;85;21061;-40
2022/07/23 00:13:45;;;;;;;20.80;10.83;;;;;;;23.64;55.87;99193.75;1679675;85;21021;-41
2022/07/23 00:16:11;;;;;;;17.50;10.28;;;;;;;23.60;55.82;99189.73;1679603;85;21048;-44
2022/07/23 00:18:37;;;;;;;15.10;9.38;;;;;;;23.56;56.02;99192.44;1679285;85;21017;-41
2022/07/23 00:21:03;;;;;;;13.05;9.60;;;;;;;23.55;55.94;99194.27;1679296;85;21053;-40
2022/07/23 00:23:30;;;;;;;13.03;9.95;;;;;;;23.57;55.83;99201.64;1679356;85;21509;-38
2022/07/23 00:25:56;;;;;;;13.58;10.43;;;;;;;23.56;55.95;99204.52;1679429;85;21115;-42
2022/07/23 00:28:22;;;;;;;14.78;11.55;;;;;;;23.51;55.89;99204.19;1679262;85;20989;-42
2022/07/23 00:30:48;;;;;;;16.97;11.80;;;;;;;23.49;56.19;99200.32;1679288;84;21053;-41
2022/07/23 00:33:13;;;;;;;16.02;10.18;;;;;;;23.46;56.10;99205.19;1678375;85;21137;-40
2022/07/23 00:35:41;;;;;;;16.48;10.08;;;;;;;23.43;56.19;99209.55;1679036;85;20990;-39
2022/07/23 00:38:12;;;;;;;14.13;9.05;;;;;;;23.34;56.75;99218.97;1677222;85;21013;-38
2022/07/23 00:40:39;;;;;;;35.75;10.00;;;;;;;23.31;56.50;99215.27;1677819;85;21559;-39
2022/07/23 00:43:05;;;;;;;15.32;9.58;;;;;;;23.25;57.08;99215.95;1679180;85;21025;-40
2022/07/23 00:45:32;;;;;;;15.08;9.55;;;;;;;23.10;57.93;99213.59;1679288;85;21069;-44
2022/07/23 00:47:58;;;;;;;11.30;9.43;;;;;;;22.97;59.36;99214.89;1678823;85;21089;-42
2022/07/23 00:50:25;;;;;;;13.28;8.85;;;;;;;23.03;58.13;99213.89;1677163;85;21082;-44
2022/07/23 00:52:52;;;;;;;11.85;8.93;;;;;;;23.00;58.30;99207.86;1677282;84;21029;-38
2022/07/23 00:55:17;;;;;;;16.82;10.03;;;;;;;23.02;58.29;99209.04;1677363;85;21025;-41
2022/07/23 00:57:43;;;;;;;12.47;9.08;;;;;;;22.99;58.96;99206.20;1677055;85;21013;-38
2022/07/23 01:00:13;;;;;;;15.15;9.15;;;;;;;22.99;58.11;99214.73;1677285;84;21069;-39
2022/07/23 01:02:40;;;;;;;13.75;8.93;;;;;;;22.99;58.35;99218.27;1677094;84;21061;-39
2022/07/23 01:05:07;;;;;;;13.60;9.33;;;;;;;22.98;58.42;99208.53;1677293;84;21021;-43
2022/07/23 01:07:34;;;;;;;15.00;9.78;;;;;;;22.95;58.66;99199.98;1677200;85;21543;-46
2022/07/23 01:10:01;;;;;;;13.58;10.10;;;;;;;22.84;58.87;99203.00;1677174;85;21017;-40
2022/07/23 01:12:26;;;;;;;15.18;10.05;;;;;;;22.81;59.31;99209.52;1677155;85;21068;-40
2022/07/23 01:14:57;;;;;;;13.48;9.68;;;;;;;22.74;59.87;99202.66;1677159;84;20993;-38
2022/07/23 01:17:23;;;;;;;11.12;9.08;;;;;;;22.71;59.07;99202.97;1677413;84;21016;-42
2022/07/23 01:19:49;;;;;;;10.98;8.15;;;;;;;22.72;59.03;99205.14;1677478;84;21459;-38
2022/07/23 01:22:19;;;;;;;14.73;8.93;;;;;;;22.72;58.83;99203.32;1676974;85;21500;-40
2022/07/23 01:24:46;;;;;;;11.65;8.05;;;;;;;22.70;58.93;99199.11;1677450;84;21005;-38
2022/07/23 01:27:12;;;;;;;11.08;7.80;;;;;;;22.71;58.84;99202.97;1677288;84;20998;-39
2022/07/23 01:29:39;;;;;;;17.20;9.00;;;;;;;22.65;59.27;99204.12;1677166;84;21025;-41
2022/07/23 01:32:05;;;;;;;12.33;8.75;;;;;;;22.63;59.13;99201.63;1677824;84;21025;-43
2022/07/23 01:34:31;;;;;;;10.93;8.13;;;;;;;22.62;59.17;99210.16;1677160;84;21061;-42
2022/07/23 01:36:57;;;;;;;12.43;8.50;;;;;;;22.60;59.01;99208.14;1677131;85;21010;-38
2022/07/23 01:39:23;;;;;;;11.68;8.93;;;;;;;22.56;59.23;99207.31;1687705;84;21049;-43
2022/07/23 01:41:49;;;;;;;13.58;9.08;;;;;;;22.54;59.41;99206.13;1687195;85;21523;-39
2022/07/23 01:44:15;;;;;;;23.00;8.80;;;;;;;22.49;59.41;99208.45;1687124;85;21499;-39
2022/07/23 01:46:41;;;;;;;15.32;8.60;;;;;;;22.37;60.21;99212.44;1684904;85;21486;-42
2022/07/23 01:49:08;;;;;;;10.18;8.38;;;;;;;22.35;60.04;99206.41;1677239;84;21086;-41
2022/07/23 01:51:33;;;;;;;12.13;9.03;;;;;;;22.22;60.65;99207.66;1677220;84;21013;-41
2022/07/23 01:53:59;;;;;;;12.23;8.53;;;;;;;22.18;60.73;99202.81;1677051;84;20994;-40
2022/07/23 01:56:25;;;;;;;12.82;8.33;;;;;;;22.17;60.69;99197.92;1676182;85;22233;-39
2022/07/23 01:58:50;;;;;;;14.55;9.43;;;;;;;22.08;62.65;99194.05;1675985;84;21631;-43
2022/07/23 02:01:17;;;;;;;10.65;8.63;;;;;;;22.05;61.40;99188.02;1677764;84;21060;-40
2022/07/23 02:03:42;;;;;;;11.10;8.33;;;;;;;22.04;61.16;99193.53;1675945;84;21100;-43
2022/07/23 02:06:09;;;;;;;14.28;9.40;;;;;;;21.93;61.95;99187.13;1676849;84;21018;-44
2022/07/23 02:08:34;;;;;;;11.05;8.85;;;;;;;21.94;61.70;99191.47;1676976;84;21455;-41
2022/07/23 02:11:00;;;;;;;14.40;9.53;;;;;;;21.97;61.33;99194.66;1677108;84;20993;-43
2022/07/23 02:13:26;;;;;;;11.38;9.10;;;;;;;21.92;61.88;99193.00;1677044;84;21365;-43
2022/07/23 02:15:51;;;;;;;13.25;8.68;;;;;;;21.93;61.64;99195.16;1677089;85;21064;-45
2022/07/23 02:18:17;;;;;;;11.35;8.93;;;;;;;21.98;61.42;99200.88;1676697;84;21010;-46
2022/07/23 02:20:44;;;;;;;11.10;8.35;;;;;;;21.99;61.37;99198.53;1676952;85;21005;-44
2022/07/23 02:23:10;;;;;;;12.25;9.50;;;;;;;21.95;61.66;99198.01;1677063;85;21141;-41
2022/07/23 02:25:36;;;;;;;15.68;10.00;;;;;;;21.94;61.52;99196.83;1677025;85;21137;-40
2022/07/23 02:28:03;;;;;;;15.10;10.48;;;;;;;21.93;61.60;99202.69;1677252;84;21041;-39
2022/07/23 02:30:29;;;;;;;15.20;11.45;;;;;;;21.95;61.71;99198.52;1677071;84;21017;-41
2022/07/23 02:32:55;;;;;;;12.33;9.93;;;;;;;21.88;62.26;99194.29;1677499;84;21010;-39
2022/07/23 02:35:21;;;;;;;15.98;9.70;;;;;;;21.89;62.21;99203.19;1677038;85;21044;-43
2022/07/23 02:37:47;;;;;;;15.80;10.10;;;;;;;21.85;62.44;99195.47;1676952;85;21060;-45
2022/07/23 02:43:07;;;;;;;12.78;9.65;;;;;;;21.89;62.41;99187.95;1665958;84;21124;-44
2022/07/23 02:45:34;;;;;;;12.23;8.73;;;;;;;21.96;62.17;99182.80;1684426;85;21103;-40
2022/07/23 02:48:00;;;;;;;11.60;8.88;;;;;;;21.97;62.16;99183.13;1684646;85;21460;-43
2022/07/23 02:50:26;;;;;;;13.08;9.85;;;;;;;21.98;62.13;99184.81;1685210;85;21015;-43
2022/07/23 02:52:51;;;;;;;11.75;9.10;;;;;;;22.01;62.01;99186.67;1685014;85;21051;-43
2022/07/23 02:55:17;;;;;;;14.38;9.50;;;;;;;21.98;61.95;99188.84;1684239;85;21394;-41
2022/07/23 02:57:43;;;;;;;10.45;8.78;;;;;;;22.02;61.72;99188.34;1684681;85;21544;-43
2022/07/23 03:00:10;;;;;;;13.10;9.65;;;;;;;22.05;61.68;99188.53;1684765;85;21512;-42
2022/07/23 03:02:36;;;;;;;13.32;8.43;;;;;;;22.06;61.62;99183.50;1684870;85;21062;-42
2022/07/23 03:05:02;;;;;;;13.38;9.03;;;;;;;22.03;61.59;99187.34;1684694;85;20988;-43
2022/07/23 03:07:28;;;;;;;13.08;8.45;;;;;;;22.03;61.51;99184.67;1684993;85;21015;-42
2022/07/23 03:09:54;;;;;;;17.02;9.60;;;;;;;22.04;61.44;99184.99;1684836;85;21011;-42
2022/07/23 03:12:20;;;;;;;15.05;9.25;;;;;;;22.02;61.51;99180.30;1684671;85;21047;-39
2022/07/23 03:14:46;;;;;;;11.45;8.45;;;;;;;22.04;61.56;99177.47;1684859;85;21016;-41
2022/07/23 03:17:12;;;;;;;15.95;9.20;;;;;;;22.05;61.24;99173.80;1685318;85;21055;-43
2022/07/23 03:19:38;;;;;;;14.93;9.90;;;;;;;22.05;61.40;99182.67;1684825;85;21004;-43
2022/07/23 03:22:05;;;;;;;12.23;9.05;;;;;;;22.07;61.28;99179.00;1684990;85;21715;-41
2022/07/23 03:27:15;;;;;;;14.58;9.05;;;;;;;22.03;61.53;99175.81;1684835;85;21112;-41
2022/07/23 03:29:40;;;;;;;16.80;9.98;;;;;;;22.04;61.49;99177.47;1684610;85;21012;-41
2022/07/23 03:32:07;;;;;;;14.78;9.18;;;;;;;22.00;61.59;99176.95;1684750;85;21180;-43
2022/07/23 03:34:32;;;;;;;12.18;9.38;;;;;;;21.95;61.79;99173.08;1684906;85;21504;-40
2022/07/23 03:36:58;;;;;;;11.10;9.15;;;;;;;21.97;61.79;99168.40;1684947;85;21063;-43
2022/07/23 03:39:24;;;;;;;12.58;9.18;;;;;;;22.01;61.41;99180.45;1685007;85;21201;-41
2022/07/23 03:41:50;;;;;;;12.58;9.98;;;;;;;21.97;61.78;99179.11;1684789;85;21019;-44
2022/07/23 03:44:15;;;;;;;14.80;10.18;;;;;;;21.93;62.03;99180.44;1684733;85;21423;-43
2022/07/23 03:46:41;;;;;;;11.93;8.90;;;;;;;21.95;61.56;99181.12;1685032;85;21007;-41
2022/07/23 03:49:07;;;;;;;14.20;8.85;;;;;;;21.97;61.52;99183.95;1684232;85;21032;-41
2022/07/23 03:51:33;;;;;;;15.38;9.20;;;;;;;21.99;61.56;99182.46;1684781;85;21043;-43
2022/07/23 03:53:58;;;;;;;15.00;9.40;;;;;;;21.98;61.71;99182.97;1684711;85;21475;-41
2022/07/23 03:56:24;;;;;;;20.72;9.20;;;;;;;21.99;61.89;99179.78;1684797;85;21008;-40
2022/07/23 03:58:50;;;;;;;10.48;9.08;;;;;;;22.01;61.87;99184.00;1684715;85;21048;-39
2022/07/23 04:01:16;;;;;;;13.58;8.60;;;;;;;22.03;61.90;99176.64;1684454;85;21056;-43
2022/07/23 04:03:41;;;;;;;14.23;8.78;;;;;;;22.03;61.95;99169.11;1684715;85;21008;-42
2022/07/23 04:06:08;;;;;;;15.60;8.18;;;;;;;22.06;61.96;99171.45;1684744;85;21022;-43
2022/07/23 04:08:33;;;;;;;16.35;8.10;;;;;;;22.09;62.20;99171.64;1684545;85;21019;-40
2022/07/23 04:11:00;;;;;;;10.05;8.70;;;;;;;22.06;62.09;99174.12;1684805;85;21104;-42
2022/07/23 04:13:26;;;;;;;14.45;7.80;;;;;;;22.11;62.05;99166.45;1684882;85;21513;-44
2022/07/23 04:15:52;;;;;;;15.13;8.25;;;;;;;22.15;61.99;99173.16;1684714;85;21563;-45
2022/07/23 04:18:18;;;;;;;14.98;8.65;;;;;;;22.17;61.93;99176.50;1684753;85;21027;-43
2022/07/23 04:20:44;;;;;;;10.93;7.42;;;;;;;22.23;61.70;99167.84;1684807;85;21011;-44
2022/07/23 04:23:10;;;;;;;10.08;7.80;;;;;;;22.30;61.55;99172.05;1685126;85;21071;-45
2022/07/23 04:25:36;;;;;;;10.88;7.75;;;;;;;22.36;61.31;99165.23;1684746;85;20984;-42
2022/07/23 04:28:03;;;;;;;10.60;7.40;;;;;;;22.40;61.15;99167.91;1684697;85;21045;-42
2022/07/23 04:30:28;;;;;;;9.88;7.65;;;;;;;22.45;60.79;99168.27;1685017;85;21019;-40
2022/07/23 04:32:54;;;;;;;12.05;7.35;;;;;;;22.50;60.84;99167.24;1684993;85;20999;-44
2022/07/23 04:35:20;;;;;;;10.40;7.40;;;;;;;22.55;60.26;99167.59;1684700;85;21019;-46
2022/07/23 04:37:46;;;;;;;12.78;6.83;;;;;;;22.58;60.01;99169.13;1684699;85;21031;-46
2022/07/23 04:40:13;;;;;;;12.18;6.87;;;;;;;22.59;60.04;99164.08;1684804;85;21502;-40
2022/07/23 04:42:39;;;;;;;13.08;7.15;;;;;;;22.65;59.68;99163.92;1671705;85;21546;-43
2022/07/23 04:45:06;;;;;;;9.70;6.85;;;;;;;22.66;59.46;99169.63;1660318;86;20998;-44
2022/07/23 04:47:32;;;;;;;;;;;;;;;22.65;59.47;99167.46;1662523;86;21492;-41
2022/07/23 04:49:57;;;;;;;8.38;6.70;;;;;;;22.68;59.75;99164.94;1660321;86;20116;-42
2022/07/23 04:52:24;;;;;;;12.18;7.30;;;;;;;22.71;59.38;99169.98;1660083;86;21499;-44
2022/07/23 04:54:50;;;;;;;9.90;7.40;;;;;;;22.78;59.20;99171.82;1660309;86;20987;-44
2022/07/23 04:57:16;;;;;;;11.68;7.20;;;;;;;22.83;58.98;99165.97;1660237;86;21010;-38
2022/07/23 04:59:42;;;;;;;6.95;5.72;;;;;;;22.84;59.01;99163.61;1660342;86;21163;-38
2022/07/23 05:02:08;;;;;;;9.25;6.10;;;;;;;22.87;58.77;99167.82;1660014;86;21018;-42
2022/07/23 05:04:33;;;;;;;6.92;6.22;;;;;;;22.90;58.69;99165.64;1659958;86;21361;-42
2022/07/23 05:07:00;;;;;;;9.75;6.22;;;;;;;22.92;58.42;99162.29;1660026;85;21011;-43
2022/07/23 05:09:26;;;;;;;10.55;6.30;;;;;;;22.96;58.46;99162.28;1660288;86;21006;-41
2022/07/23 05:11:52;;;;;;;7.20;5.97;;;;;;;23.02;58.17;99165.30;1659981;86;21013;-45
2022/07/23 05:14:17;;;;;;;8.48;5.85;;;;;;;23.08;58.02;99165.48;1660265;86;21508;-41
2022/07/23 05:16:43;;;;;;;6.03;5.40;;;;;;;23.15;58.05;99171.02;1660187;86;21496;-38
2022/07/23 05:19:09;;;;;;;6.62;5.22;;;;;;;23.18;57.74;99171.52;1660067;86;21011;-46
2022/07/23 05:21:35;;;;;;;10.48;5.60;;;;;;;23.24;57.62;99178.05;1660071;86;21003;-41
2022/07/23 05:24:01;;;;;;;6.55;5.40;;;;;;;23.30;57.41;99172.02;1659956;86;21035;-44
2022/07/23 05:26:26;;;;;;;8.55;5.55;;;;;;;23.35;57.29;99169.64;1659922;86;21023;-44
2022/07/23 05:28:52;;;;;;;8.78;5.62;;;;;;;23.39;57.34;99160.75;1659985;86;21018;-45
2022/07/23 05:31:18;;;;;;;6.40;5.35;;;;;;;23.44;57.11;99159.73;1660010;86;21014;-44
2022/07/23 05:33:44;;;;;;;10.60;5.30;;;;;;;23.50;56.86;99163.58;1660139;86;21038;-41
2022/07/23 05:36:10;;;;;;;13.50;5.55;;;;;;;23.55;56.66;99162.05;1660242;86;21019;-43
2022/07/23 05:38:36;;;;;;;6.17;5.10;;;;;;;23.56;56.39;99158.89;1653425;86;21000;-43
2022/07/23 05:41:02;;;;;;;7.58;5.33;;;;;;;23.60;56.43;99156.19;1653260;86;21055;-40
2022/07/23 05:43:28;;;;;;;15.30;5.45;;;;;;;23.64;56.34;99150.80;1654798;86;21090;-42
2022/07/23 05:45:54;;;;;;;5.70;4.97;;;;;;;23.69;56.25;99152.47;1655442;87;21012;-42
2022/07/23 05:48:20;;;;;;;8.38;6.08;;;;;;;23.74;56.19;99153.30;1655521;86;21501;-45
2022/07/23 05:50:47;;;;;;;9.53;5.67;;;;;;;23.75;56.00;99157.13;1655725;86;21499;-43
2022/07/23 05:53:13;;;;;;;;;;;;;;;23.80;56.09;99158.52;1657937;86;21171;-42
2022/07/23 05:55:39;;;;;;;13.98;5.30;;;;;;;23.83;55.74;99149.61;1655666;87;20127;-44
2022/07/23 05:58:05;;;;;;;7.80;5.62;;;;;;;23.86;55.62;99159.15;1655428;87;21027;-48
2022/07/23 06:00:31;;;;;;;9.70;5.40;;;;;;;23.89;55.58;99150.75;1655403;87;21059;-44
2022/07/23 06:02:57;;;;;;;6.47;5.35;;;;;;;23.92;55.59;99147.22;1655448;86;21018;-43
2022/07/23 06:05:23;;;;;;;9.35;5.72;;;;;;;23.95;55.58;99143.33;1655458;86;21019;-41
2022/07/23 06:07:49;;;;;;;9.75;5.55;;;;;;;24.00;55.40;99144.99;1655596;86;21052;-40
2022/07/23 06:10:15;;;;;;;8.03;5.65;;;;;;;24.06;55.50;99143.45;1655487;86;21063;-44
2022/07/23 06:12:41;;;;;;;8.78;5.85;;;;;;;24.10;55.35;99141.59;1655495;86;21544;-43
2022/07/23 06:15:09;;;;;;;7.53;5.40;;;;;;;24.14;55.00;99145.59;1655522;85;21470;-48
2022/07/23 06:17:35;;;;;;;6.28;5.33;;;;;;;24.18;55.04;99134.51;1655399;86;21018;-41
2022/07/23 06:20:01;;;;;;;11.43;5.72;;;;;;;24.22;54.92;99139.85;1655680;86;21014;-42
2022/07/23 06:22:27;;;;;;;7.37;5.83;;;;;;;24.26;55.19;99136.62;1655407;86;21055;-45
2022/07/23 06:24:52;;;;;;;6.00;5.42;;;;;;;24.29;54.90;99128.73;1655464;86;21103;-42
2022/07/23 06:27:18;;;;;;;6.87;5.80;;;;;;;24.33;54.81;99121.46;1655537;87;21047;-41
2022/07/23 06:29:44;;;;;;;7.85;6.15;;;;;;;24.39;54.91;99119.91;1655430;86;21018;-43
2022/07/23 06:32:11;;;;;;;9.80;5.63;;;;;;;24.44;54.65;99129.63;1655748;86;21549;-40
2022/07/23 06:34:37;;;;;;;11.28;5.45;;;;;;;24.50;54.58;99122.21;1655538;87;21014;-42
2022/07/23 06:37:03;;;;;;;7.33;5.67;;;;;;;24.56;54.45;99126.55;1655368;86;21011;-41
2022/07/23 06:39:28;;;;;;;10.90;5.97;;;;;;;24.60;54.22;99115.27;1655448;86;21094;-40
2022/07/23 06:41:54;;;;;;;6.47;5.65;;;;;;;24.66;54.14;99117.23;1655419;86;21050;-37
2022/07/23 06:44:20;;;;;;;8.90;5.83;;;;;;;24.70;54.05;99114.53;1660093;86;21223;-41
2022/07/23 06:46:46;;;;;;;9.75;5.95;;;;;;;24.75;53.87;99109.11;1660203;86;21060;-42
2022/07/23 06:49:11;;;;;;;10.55;5.72;;;;;;;24.80;53.87;99106.20;1660160;86;21019;-40
2022/07/23 06:51:37;;;;;;;11.70;5.72;;;;;;;24.85;53.81;99105.64;1660243;85;20979;-41
2022/07/23 06:54:03;;;;;;;8.10;6.03;;;;;;;24.92;53.79;99099.86;1660214;86;21527;-40
2022/07/23 06:56:29;;;;;;;7.43;6.23;;;;;;;24.98;53.46;99109.09;1660481;85;21011;-41
2022/07/23 06:58:55;;;;;;;8.35;6.28;;;;;;;25.07;53.47;99116.06;1660188;86;21054;-39
2022/07/23 07:01:21;;;;;;;9.38;6.00;;;;;;;25.13;53.33;99109.94;1660217;86;21203;-40
2022/07/23 07:03:47;;;;;;;8.63;6.90;;;;;;;25.20;53.12;99112.73;1660147;86;21030;-40
2022/07/23 07:06:14;;;;;;;10.47;6.23;;;;;;;25.26;52.81;99111.50;1660370;86;21010;-40
2022/07/23 07:08:40;;;;;;;10.35;5.80;;;;;;;25.36;52.68;99111.25;1660372;85;21049;-38
2022/07/23 07:11:06;;;;;;;7.62;5.80;;;;;;;25.43;52.44;99108.64;1660245;86;21018;-41
2022/07/23 07:13:32;;;;;;;9.40;6.60;;;;;;;25.49;52.17;99106.56;1660425;86;21026;-45
2022/07/23 07:15:58;;;;;;;13.72;6.35;;;;;;;25.57;52.33;99105.63;1660387;86;21011;-39
2022/07/23 07:18:24;;;;;;;8.18;6.00;;;;;;;25.63;52.12;99099.00;1660341;86;21022;-39
2022/07/23 07:20:49;;;;;;;9.58;5.97;;;;;;;25.71;51.79;99097.23;1660280;86;20990;-42
2022/07/23 07:23:15;;;;;;;14.03;6.22;;;;;;;25.80;51.12;99110.91;1660343;85;20990;-41
2022/07/23 07:25:41;;;;;;;10.93;6.65;;;;;;;25.88;51.46;99109.97;1660286;85;21051;-41
2022/07/23 07:28:06;;;;;;;10.80;6.22;;;;;;;25.95;51.11;99110.40;1660305;86;21015;-41
2022/07/23 07:30:32;;;;;;;10.78;6.80;;;;;;;26.03;51.15;99111.66;1660300;86;21063;-39
2022/07/23 07:32:58;;;;;;;10.68;6.40;;;;;;;26.10;50.79;99113.58;1660296;86;21055;-37
2022/07/23 07:35:25;;;;;;;7.17;6.45;;;;;;;26.21;50.84;99114.42;1660294;86;21066;-41
2022/07/23 07:37:51;;;;;;;8.85;6.95;;;;;;;26.27;50.34;99112.33;1660457;86;21059;-44
2022/07/23 07:40:17;;;;;;;10.60;6.80;;;;;;;26.35;50.13;99116.77;1660366;86;21532;-42
2022/07/23 07:42:52;;;;;;;11.85;7.03;;;;;;;26.39;49.90;99108.08;1659229;86;21489;-42
2022/07/23 07:45:21;;;;;;;11.08;6.47;;;;;;;26.47;49.88;99119.77;1650183;87;21019;-41
2022/07/23 07:47:47;;;;;;;8.85;7.33;;;;;;;26.56;49.83;99124.01;1655636;86;21148;-39
2022/07/23 07:50:14;;;;;;;8.78;6.60;;;;;;;26.67;49.79;99125.39;1655647;87;21484;-42
2022/07/23 07:52:39;;;;;;;10.13;7.08;;;;;;;26.78;49.30;99131.13;1655841;86;21027;-37
2022/07/23 07:55:08;;;;;;;7.33;6.30;;;;;;;26.89;49.12;99132.46;1655561;85;21666;-38
2022/07/23 07:57:35;;;;;;;9.85;6.67;;;;;;;26.99;48.95;99138.34;1655544;87;20991;-41
2022/07/23 08:00:01;;;;;;;8.05;6.45;;;;;;;27.10;48.40;99143.72;1655623;87;21530;-36
2022/07/23 08:02:27;;;;;;;7.80;7.00;;;;;;;27.17;47.84;99135.16;1655743;86;21497;-40
2022/07/23 08:04:53;;;;;;;10.03;6.83;;;;;;;27.24;47.54;99137.92;1655745;87;21046;-41
2022/07/23 08:07:19;;;;;;;12.75;6.78;;;;;;;27.30;47.64;99136.33;1655731;86;21043;-39
2022/07/23 08:09:45;;;;;;;10.15;7.30;;;;;;;27.33;47.24;99138.12;1655643;86;21015;-42
2022/07/23 08:12:11;;;;;;;9.13;6.60;;;;;;;27.43;47.19;99135.05;1655532;86;21018;-40
2022/07/23 08:14:36;;;;;;;8.33;6.80;;;;;;;27.54;47.08;99127.78;1655601;86;21043;-42
2022/07/23 08:17:02;;;;;;;7.80;6.03;;;;;;;27.65;46.94;99127.73;1655485;86;21523;-38
2022/07/23 08:19:28;;;;;;;9.13;5.72;;;;;;;27.74;45.05;99120.27;1655606;86;21508;-42
2022/07/23 08:21:54;;;;;;;12.15;7.92;;;;;;;27.87;44.83;99116.30;1656015;86;21108;-40
2022/07/23 08:24:19;;;;;;;17.67;10.75;;;;;;;27.99;44.47;99117.10;1655700;86;20994;-44
2022/07/23 08:26:45;;;;;;;8.33;6.22;;;;;;;28.05;44.19;99120.34;1655753;86;20995;-43
2022/07/23 08:29:11;;;;;;;8.93;5.60;;;;;;;28.16;44.00;99115.72;1655767;86;21011;-41
2022/07/23 08:31:37;;;;;;;8.40;5.70;;;;;;;28.26;43.69;99113.97;1655717;87;21072;-43
2022/07/23 08:34:02;;;;;;;9.33;5.72;;;;;;;28.32;42.61;99103.18;1655709;85;21067;-43
2022/07/23 08:36:32;;;;;;;13.00;7.72;;;;;;;28.43;43.25;99109.83;1655755;86;21007;-42
2022/07/23 08:38:56;;;;;;;7.75;5.40;;;;;;;28.52;42.71;99109.13;1655316;86;21425;-40
2022/07/23 08:41:22;;;;;;;9.15;6.00;;;;;;;28.59;42.19;99102.41;1655728;86;21015;-39
2022/07/23 08:43:48;;;;;;;6.62;5.62;;;;;;;28.62;42.13;99096.07;1655435;86;21084;-38
2022/07/23 08:46:14;;;;;;;7.37;5.42;;;;;;;28.69;42.02;99105.02;1654717;85;21046;-45
2022/07/23 08:48:40;;;;;;;7.47;5.92;;;;;;;28.80;42.10;99100.87;1633621;87;22241;-45
2022/07/23 08:51:07;;;;;;;9.63;6.20;;;;;;;28.88;40.50;99099.29;1654678;86;21082;-40
2022/07/23 08:53:37;;;;;;;6.08;5.17;;;;;;;29.09;41.21;99098.78;1655473;86;21051;-43
2022/07/23 08:56:04;;;;;;;8.85;6.15;;;;;;;29.32;41.21;99104.29;1655248;86;21007;-41
2022/07/23 08:58:31;;;;;;;7.67;5.40;;;;;;;29.47;40.24;99103.02;1655426;86;21022;-42
2022/07/23 09:00:57;;;;;;;7.22;5.08;;;;;;;29.65;39.57;99105.55;1655458;86;21014;-43
2022/07/23 09:03:30;;;;;;;6.08;5.42;;;;;;;29.82;39.53;99093.23;1655576;86;21566;-37
2022/07/23 09:05:58;;;;;;;10.90;5.50;;;;;;;30.01;38.96;99083.86;1655420;86;20983;-41
2022/07/23 09:08:38;;;;;;;9.73;5.03;;;;;;;30.23;38.26;99077.08;1652884;86;20996;-41
2022/07/23 09:11:12;;;;;;;7.05;4.90;;;;;;;30.40;37.35;99080.66;1653589;86;21008;-39
2022/07/23 09:13:43;;;;;;;11.05;5.45;;;;;;;30.53;38.04;99085.98;1653351;86;21520;-44
2022/07/23 09:16:30;;;;;;;6.35;5.03;;;;;;;30.67;37.43;99081.80;1653726;87;21035;-44
2022/07/23 09:19:03;;;;;;;7.37;4.47;;;;;;;30.88;37.65;99078.70;1653316;87;21012;-46
2022/07/23 09:21:33;;;;;;;7.50;4.80;;;;;;;31.11;37.69;99078.65;1653647;87;21561;-51
2022/07/23 09:24:17;;;;;;;6.85;4.72;;;;;;;31.27;37.21;99074.49;1653671;87;21957;-48
2022/07/23 09:26:46;;;;;;;9.70;5.28;;;;;;;31.50;37.11;99073.87;1653709;86;21504;-42
2022/07/23 09:29:19;;;;;;;5.67;5.08;;;;;;;31.75;36.54;99066.98;1653345;86;21680;-43
2022/07/23 09:31:49;;;;;;;6.95;4.87;;;;;;;32.03;35.65;99071.86;1653727;86;21051;-43
2022/07/23 09:34:25;;;;;;;7.55;5.42;;;;;;;32.28;35.69;99060.02;1653731;86;21079;-41
2022/07/23 09:36:57;;;;;;;7.40;4.70;;;;;;;32.59;35.28;99067.09;1653316;86;21086;-41
2022/07/23 09:39:31;;;;;;;5.75;4.50;;;;;;;32.95;35.24;99054.34;1653373;86;21028;-40
2022/07/23 09:42:18;;;;;;;5.45;4.95;;;;;;;33.36;34.08;99059.36;1653285;86;21043;-52
2022/07/23 09:44:47;;;;;;;7.97;5.20;;;;;;;33.70;33.21;99060.11;1656884;86;21063;-43
2022/07/23 09:47:13;;;;;;;6.12;4.53;;;;;;;34.19;33.35;99050.98;1658056;86;21480;-54
2022/07/23 09:49:39;;;;;;;14.23;5.12;;;;;;;34.71;33.23;99054.05;1658408;86;21047;-54
2022/07/23 09:52:05;;;;;;;6.17;4.90;;;;;;;35.06;31.75;99054.34;1658014;86;21012;-50
2022/07/23 09:54:38;;;;;;;10.10;4.90;;;;;;;35.54;31.73;99053.63;1658318;86;21020;-42
2022/07/23 09:57:14;;;;;;;21.57;5.20;;;;;;;36.05;30.99;99057.52;1658287;86;21067;-43
2022/07/23 09:59:39;;;;;;;6.97;4.65;;;;;;;36.28;30.06;99050.13;1657768;86;21015;-49
2022/07/23 10:02:07;;;;;;;8.70;4.75;;;;;;;36.47;29.24;99054.66;1658471;86;21071;-44
2022/07/23 10:04:34;;;;;;;9.63;4.85;;;;;;;36.60;27.78;99057.51;1658138;86;21477;-50
2022/07/23 10:07:04;;;;;;;6.10;4.60;;;;;;;36.86;28.70;99053.09;1658247;86;21056;-49
2022/07/23 10:09:34;;;;;;;6.25;4.33;;;;;;;37.16;28.08;99050.29;1657929;86;21043;-45
2022/07/23 10:12:11;;;;;;;5.55;4.28;;;;;;;37.44;27.27;99060.86;1658349;86;21027;-47
2022/07/23 10:14:34;;;;;;;5.30;4.70;;;;;;;37.65;27.25;99052.18;1657597;86;20987;-43
2022/07/23 10:17:03;;;;;;;6.90;4.87;;;;;;;38.07;27.01;99051.75;1658465;86;21505;-38
2022/07/23 10:19:30;;;;;;;6.65;5.08;;;;;;;38.46;26.78;99054.03;1658085;86;21051;-52
2022/07/23 10:22:01;;;;;;;7.83;4.97;;;;;;;38.61;26.05;99054.61;1658229;86;21071;-46
2022/07/23 10:24:53;;;;;;;8.23;4.78;;;;;;;38.73;25.65;99044.70;1658210;86;21043;-43
2022/07/23 10:27:53;;;;;;;5.92;4.78;;;;;;;38.70;25.50;99044.70;1658206;86;21073;-46
2022/07/23 10:30:54;;;;;;;9.05;4.65;;;;;;;38.54;25.37;99036.17;1658243;86;21027;-53
2022/07/23 10:33:47;;;;;;;5.15;4.67;;;;;;;38.13;25.64;99039.73;1657646;86;21063;-48
2022/07/23 10:36:33;;;;;;;6.05;4.87;;;;;;;37.87;25.52;99042.11;1657803;86;21079;-45
2022/07/23 10:39:25;;;;;;;6.08;4.55;;;;;;;37.96;25.59;99031.69;1658095;86;21484;-48
2022/07/23 10:41:51;;;;;;;7.53;4.60;;;;;;;38.21;25.66;99028.19;1658309;86;21203;-43
2022/07/23 10:44:26;;;;;;;4.95;4.35;;;;;;;38.16;24.85;99030.92;1656545;86;21078;-53
2022/07/23 10:49:32;;;;;;;5.60;4.60;;;;;;;38.08;24.86;99035.56;1655098;86;21030;-45
2022/07/23 10:52:23;;;;;;;7.67;4.70;;;;;;;37.73;24.85;99028.06;1654681;86;21047;-48
2022/07/23 10:55:03;;;;;;;5.83;4.78;;;;;;;37.42;25.15;99027.39;1654845;86;21019;-42
2022/07/23 10:57:29;;;;;;;11.53;5.92;;;;;;;37.03;25.40;99022.22;1655032;86;21536;-48
2022/07/23 11:00:11;;;;;;;7.72;5.20;;;;;;;36.73;25.29;99023.39;1654997;86;21079;-50
2022/07/23 11:02:39;;;;;;;9.35;5.17;;;;;;;36.43;25.39;99008.36;1655208;86;21072;-46
2022/07/23 11:05:12;;;;;;;5.72;5.03;;;;;;;36.28;25.65;99010.44;1654899;86;21549;-50
2022/07/23 11:08:04;;;;;;;8.65;5.53;;;;;;;36.27;25.64;99001.92;1655092;86;21043;-48
2022/07/23 11:10:40;;;;;;;5.03;4.53;;;;;;;36.23;25.79;99000.25;1655638;86;21082;-51
2022/07/23 11:13:39;;;;;;;;;;;;;;;36.12;25.96;98995.74;1657120;86;21031;-53
2022/07/23 11:16:16;;;;;;;5.53;4.97;;;;;;;35.97;25.33;98988.22;1654785;87;20131;-42
2022/07/23 11:18:50;;;;;;;5.15;4.65;;;;;;;36.12;26.31;98987.53;1655138;86;21539;-53
2022/07/23 11:21:28;;;;;;;5.87;5.28;;;;;;;36.10;26.90;98988.34;1654969;86;21007;-49
2022/07/23 11:24:10;;;;;;;9.03;5.40;;;;;;;36.07;26.27;98983.38;1649776;85;21450;-39
2022/07/23 11:26:50;;;;;;;6.80;5.65;;;;;;;36.29;26.29;98980.06;1655073;86;20995;-45
2022/07/23 11:29:35;;;;;;;7.42;5.33;;;;;;;36.81;25.35;98981.27;1656304;87;21017;-53
2022/07/23 11:32:08;;;;;;;5.37;4.83;;;;;;;36.73;24.72;98979.56;1656355;85;21037;-40
2022/07/23 11:34:41;;;;;;;12.25;5.33;;;;;;;36.62;24.96;98991.81;1656396;86;21066;-44
2022/07/23 11:37:11;;;;;;;8.55;4.80;;;;;;;36.50;24.96;98985.69;1652165;87;21693;-39
2022/07/23 11:39:39;;;;;;;11.68;5.37;;;;;;;36.26;25.02;98972.36;1655660;87;21511;-45
2022/07/23 11:42:07;;;;;;;5.85;5.22;;;;;;;36.16;25.13;98968.12;1655555;85;21002;-37